createdAt,value
2022-09-02T00:01:41.304Z,18.16
2022-09-02T00:04:19.692Z,18.17
2022-09-02T00:06:48.996Z,18.12
2022-09-02T00:09:19.538Z,18.10
2022-09-02T00:11:50.660Z,18.06
2022-09-02T00:14:29.595Z,18.05
2022-09-02T00:16:56.892Z,17.98
2022-09-02T00:19:27.568Z,17.95
2022-09-02T00:21:56.557Z,17.91
2022-09-02T00:24:27.439Z,17.88
2022-09-02T00:26:56.695Z,17.84
2022-09-02T00:29:27.236Z,17.82
2022-09-02T00:31:54.462Z,17.78
2022-09-02T00:34:21.760Z,17.76
2022-09-02T00:36:48.777Z,17.70
2022-09-02T00:39:15.808Z,17.69
2022-09-02T00:41:44.630Z,17.68
2022-09-02T00:44:16.068Z,17.66
2022-09-02T00:46:43.414Z,17.64
2022-09-02T00:49:26.214Z,17.62
2022-09-02T00:52:16.091Z,17.60
2022-09-02T00:54:53.616Z,17.56
2022-09-02T00:57:27.243Z,17.55
2022-09-02T01:00:07.875Z,17.53
2022-09-02T01:02:37.732Z,17.52
2022-09-02T01:05:09.295Z,17.50
2022-09-02T01:07:39.647Z,17.48
2022-09-02T01:10:14.971Z,17.47
2022-09-02T01:12:42.624Z,17.45
2022-09-02T01:15:12.276Z,17.43
2022-09-02T01:17:47.938Z,17.39
2022-09-02T01:20:21.358Z,17.37
2022-09-02T01:22:55.088Z,17.34
2022-09-02T01:25:54.415Z,17.33
2022-09-02T01:28:22.072Z,17.29
2022-09-02T01:30:54.778Z,17.28
2022-09-02T01:33:25.404Z,17.26
2022-09-02T01:35:54.051Z,17.23
2022-09-02T01:38:22.279Z,17.21
2022-09-02T01:40:49.610Z,17.16
2022-09-02T01:43:24.217Z,17.17
2022-09-02T01:45:55.407Z,17.15
2022-09-02T01:48:25.364Z,17.13
2022-09-02T01:50:59.683Z,17.11
2022-09-02T01:53:27.641Z,17.10
2022-09-02T01:55:55.474Z,17.07
2022-09-02T01:58:23.279Z,17.06
2022-09-02T02:00:51.213Z,17.05
2022-09-02T02:03:18.751Z,17.01
2022-09-02T02:05:45.920Z,17.00
2022-09-02T02:08:16.288Z,16.96
2022-09-02T02:10:43.952Z,16.95
2022-09-02T02:13:13.760Z,16.91
2022-09-02T02:15:44.344Z,16.90
2022-09-02T02:18:12.078Z,16.88
2022-09-02T02:20:39.336Z,16.86
2022-09-02T02:23:07.291Z,16.85
2022-09-02T02:25:35.132Z,16.83
2022-09-02T02:28:03.317Z,16.83
2022-09-02T02:30:33.203Z,16.81
2022-09-02T02:33:01.331Z,16.80
2022-09-02T02:35:29.021Z,16.77
2022-09-02T02:37:56.618Z,16.77
2022-09-02T02:40:25.758Z,16.74
2022-09-02T02:42:54.141Z,16.73
2022-09-02T02:45:24.173Z,16.72
2022-09-02T02:47:52.286Z,16.71
2022-09-02T02:50:22.969Z,16.72
2022-09-02T02:52:51.716Z,16.70
2022-09-02T02:55:19.877Z,16.69
2022-09-02T02:57:47.058Z,16.67
2022-09-02T03:00:29.136Z,16.65
2022-09-02T03:03:11.698Z,16.65
2022-09-02T03:05:39.971Z,16.61
2022-09-02T03:08:09.803Z,16.58
2022-09-02T03:10:38.575Z,16.58
2022-09-02T03:13:05.882Z,16.57
2022-09-02T03:15:34.798Z,16.55
2022-09-02T03:18:01.856Z,16.56
2022-09-02T03:20:29.041Z,16.54
2022-09-02T03:23:00.496Z,16.52
2022-09-02T03:25:35.354Z,16.50
2022-09-02T03:28:05.621Z,16.48
2022-09-02T03:30:33.534Z,16.47
2022-09-02T03:33:05.833Z,16.46
2022-09-02T03:35:39.966Z,16.45
2022-09-02T03:38:07.520Z,16.43
2022-09-02T03:40:35.409Z,16.42
2022-09-02T03:43:03.869Z,16.39
2022-09-02T03:45:32.040Z,16.39
2022-09-02T03:48:04.550Z,16.34
2022-09-02T03:50:43.371Z,16.32
2022-09-02T03:53:19.464Z,16.29
2022-09-02T03:55:50.782Z,16.27
2022-09-02T03:58:19.866Z,16.27
2022-09-02T04:00:55.032Z,16.25
2022-09-02T04:03:24.181Z,16.22
2022-09-02T04:05:52.382Z,16.19
2022-09-02T04:08:20.930Z,16.19
2022-09-02T04:10:48.786Z,16.17
2022-09-02T04:13:16.482Z,16.15
2022-09-02T04:15:48.025Z,16.13
2022-09-02T04:18:17.738Z,16.11
2022-09-02T04:20:45.613Z,16.10
2022-09-02T04:23:13.339Z,16.05
2022-09-02T04:25:44.390Z,16.05
2022-09-02T04:28:13.074Z,16.04
2022-09-02T04:30:42.262Z,16.01
2022-09-02T04:33:10.672Z,15.99
2022-09-02T04:35:47.396Z,15.99
2022-09-02T04:38:16.840Z,15.97
2022-09-02T04:40:46.788Z,15.99
2022-09-02T04:43:14.999Z,15.96
2022-09-02T04:45:45.211Z,15.97
2022-09-02T04:48:14.546Z,15.93
2022-09-02T04:50:43.425Z,15.89
2022-09-02T04:53:11.015Z,15.88
2022-09-02T04:55:42.547Z,15.88
2022-09-02T04:58:11.943Z,15.86
2022-09-02T05:00:40.345Z,15.85
2022-09-02T05:03:11.704Z,15.82
2022-09-02T05:05:40.632Z,15.79
2022-09-02T05:08:10.006Z,15.79
2022-09-02T05:10:39.140Z,15.77
2022-09-02T05:13:06.743Z,15.75
2022-09-02T05:15:38.035Z,15.73
2022-09-02T05:18:05.038Z,15.72
2022-09-02T05:20:33.033Z,15.72
2022-09-02T05:23:00.100Z,15.72
2022-09-02T05:25:27.074Z,15.74
2022-09-02T05:27:54.527Z,15.74
2022-09-02T05:30:21.891Z,15.76
2022-09-02T05:32:49.901Z,15.74
2022-09-02T05:35:17.277Z,15.73
2022-09-02T05:37:44.298Z,15.72
2022-09-02T05:40:14.717Z,15.72
2022-09-02T05:42:43.466Z,15.72
2022-09-02T05:45:12.117Z,15.71
2022-09-02T05:47:43.837Z,15.72
2022-09-02T05:50:11.627Z,15.75
2022-09-02T05:52:43.179Z,15.73
2022-09-02T05:55:10.319Z,15.75
2022-09-02T05:57:39.388Z,15.75
2022-09-02T06:00:09.891Z,15.77
2022-09-02T06:02:43.837Z,15.78
2022-09-02T06:05:20.742Z,15.79
2022-09-02T06:07:58.436Z,15.78
2022-09-02T06:10:25.751Z,15.78
2022-09-02T06:12:53.408Z,15.82
2022-09-02T06:15:23.208Z,15.85
2022-09-02T06:17:50.402Z,15.91
2022-09-02T06:20:17.874Z,15.96
2022-09-02T06:22:46.560Z,16.00
2022-09-02T06:25:14.583Z,16.04
2022-09-02T06:27:41.718Z,16.11
2022-09-02T06:30:10.371Z,16.18
2022-09-02T06:32:37.362Z,16.26
2022-09-02T06:35:09.171Z,16.39
2022-09-02T06:37:37.626Z,16.48
2022-09-02T06:40:06.082Z,16.62
2022-09-02T06:42:33.616Z,16.77
2022-09-02T06:45:10.815Z,16.91
2022-09-02T06:47:39.174Z,17.03
2022-09-02T06:50:06.776Z,17.15
2022-09-02T06:52:34.434Z,17.25
2022-09-02T06:55:01.784Z,17.34
2022-09-02T06:57:31.396Z,17.44
2022-09-02T07:00:07.941Z,17.51
2022-09-02T07:02:35.352Z,17.60
2022-09-02T07:05:09.877Z,17.67
2022-09-02T07:07:40.592Z,17.74
2022-09-02T07:10:14.032Z,17.81
2022-09-02T07:12:44.339Z,17.89
2022-09-02T07:15:14.401Z,17.95
2022-09-02T07:17:42.784Z,18.01
2022-09-02T07:20:14.681Z,18.04
2022-09-02T07:22:46.966Z,18.12
2022-09-02T07:25:17.581Z,18.18
2022-09-02T07:27:45.673Z,18.24
2022-09-02T07:30:14.308Z,18.31
2022-09-02T07:32:44.022Z,18.39
2022-09-02T07:35:11.107Z,18.47
2022-09-02T07:37:38.900Z,18.60
2022-09-02T07:40:11.444Z,18.75
2022-09-02T07:42:38.864Z,18.85
2022-09-02T07:45:07.052Z,18.96
2022-09-02T07:47:35.712Z,19.10
2022-09-02T07:50:22.187Z,19.22
2022-09-02T07:52:56.494Z,19.37
2022-09-02T07:55:23.939Z,19.51
2022-09-02T07:57:54.425Z,19.59
2022-09-02T08:00:23.366Z,19.67
2022-09-02T08:02:52.172Z,19.76
2022-09-02T08:05:26.534Z,19.83
2022-09-02T08:07:53.648Z,19.88
2022-09-02T08:10:23.347Z,19.93
2022-09-02T08:12:50.704Z,20.00
2022-09-02T08:15:19.945Z,20.07
2022-09-02T08:17:48.499Z,20.12
2022-09-02T08:20:17.868Z,20.15
2022-09-02T08:22:48.889Z,20.22
2022-09-02T08:25:22.958Z,20.28
2022-09-02T08:27:50.009Z,20.33
2022-09-02T08:30:17.078Z,20.38
2022-09-02T08:32:44.051Z,20.45
2022-09-02T08:35:11.673Z,20.48
2022-09-02T08:37:39.094Z,20.55
2022-09-02T08:40:16.786Z,20.62
2022-09-02T08:42:51.157Z,20.70
2022-09-02T08:45:30.230Z,20.75
2022-09-02T08:48:23.758Z,20.81
2022-09-02T08:50:58.752Z,20.88
2022-09-02T08:53:54.381Z,20.98
2022-09-02T08:56:21.336Z,21.03
2022-09-02T08:59:02.177Z,21.13
2022-09-02T09:02:02.550Z,21.23
2022-09-02T09:04:56.697Z,21.33
2022-09-02T09:07:56.323Z,21.39
2022-09-02T09:10:56.789Z,21.47
2022-09-02T09:13:58.593Z,21.55
2022-09-02T09:16:56.170Z,21.62
2022-09-02T09:19:51.486Z,21.70
2022-09-02T09:22:37.341Z,21.80
2022-09-02T09:25:12.450Z,21.92
2022-09-02T09:27:39.851Z,21.97
2022-09-02T09:30:14.866Z,22.07
2022-09-02T09:32:46.304Z,22.16
2022-09-02T09:35:16.547Z,22.27
2022-09-02T09:37:50.291Z,22.34
2022-09-02T09:40:30.922Z,22.42
2022-09-02T09:43:05.720Z,22.50
2022-09-02T09:45:51.486Z,22.58
2022-09-02T09:48:30.668Z,22.67
2022-09-02T09:50:57.494Z,22.75
2022-09-02T09:53:32.291Z,22.78
2022-09-02T09:56:06.488Z,22.82
2022-09-02T09:58:40.025Z,22.90
2022-09-02T10:01:33.428Z,23.02
2022-09-02T10:04:20.632Z,23.13
2022-09-02T10:06:53.190Z,23.23
2022-09-02T10:09:20.097Z,23.32
2022-09-02T10:12:08.627Z,23.39
2022-09-02T10:14:41.818Z,23.45
2022-09-02T10:17:40.246Z,23.46
2022-09-02T10:21:04.861Z,23.52
2022-09-02T10:24:00.638Z,23.60
2022-09-02T10:26:43.443Z,23.60
2022-09-02T10:29:49.626Z,23.68
2022-09-02T10:32:46.696Z,23.74
2022-09-02T10:35:37.967Z,23.75
2022-09-02T10:38:44.736Z,23.76
2022-09-02T10:45:01.231Z,23.86
2022-09-02T10:47:38.137Z,23.98
2022-09-02T10:50:53.357Z,24.04
2022-09-02T10:53:26.359Z,24.12
2022-09-02T10:56:15.964Z,24.19
2022-09-02T10:59:01.479Z,24.23
2022-09-02T11:01:36.881Z,24.32
2022-09-02T11:04:16.604Z,24.44
2022-09-02T11:07:02.549Z,24.55
2022-09-02T11:09:37.449Z,24.68
2022-09-02T11:12:32.231Z,24.77
2022-09-02T11:15:21.987Z,24.82
2022-09-02T11:21:13.978Z,24.92
2022-09-02T11:24:05.025Z,24.94
2022-09-02T11:27:20.207Z,25.00
2022-09-02T11:30:23.303Z,25.04
2022-09-02T11:33:12.979Z,25.04
2022-09-02T11:35:40.044Z,25.03
2022-09-02T11:38:32.425Z,25.17
2022-09-02T11:42:06.638Z,25.31
2022-09-02T11:45:39.124Z,25.37
2022-09-02T11:48:33.194Z,25.44
2022-09-02T11:51:23.617Z,25.50
2022-09-02T11:53:54.877Z,25.59
2022-09-02T11:56:30.385Z,25.62
2022-09-02T11:58:57.506Z,25.67
2022-09-02T12:01:47.688Z,25.82
2022-09-02T12:07:08.679Z,25.79
2022-09-02T12:09:54.946Z,25.78
2022-09-02T12:12:37.084Z,25.87
2022-09-02T12:15:08.078Z,25.98
2022-09-02T12:17:50.819Z,26.05
2022-09-02T12:20:36.315Z,26.06
2022-09-02T12:23:03.959Z,26.05
2022-09-02T12:25:34.040Z,26.15
2022-09-02T12:28:19.136Z,26.23
2022-09-02T12:31:15.475Z,26.25
2022-09-02T12:33:49.250Z,26.24
2022-09-02T12:36:41.396Z,26.32
2022-09-02T12:39:35.491Z,26.42
2022-09-02T12:42:07.100Z,26.50
2022-09-02T12:45:13.088Z,26.66
2022-09-02T12:47:49.002Z,26.73
2022-09-02T12:50:50.606Z,26.84
2022-09-02T12:53:23.475Z,26.86
2022-09-02T12:56:06.907Z,26.82
2022-09-02T12:58:41.300Z,26.82
2022-09-02T13:01:16.686Z,26.85
2022-09-02T13:04:23.231Z,26.92
2022-09-02T13:08:10.398Z,26.91
2022-09-02T13:11:31.380Z,26.91
2022-09-02T13:14:43.592Z,26.89
2022-09-02T13:17:37.198Z,26.95
2022-09-02T13:20:59.179Z,27.01
2022-09-02T13:23:35.471Z,26.96
2022-09-02T13:26:48.276Z,26.98
2022-09-02T13:30:04.630Z,27.05
2022-09-02T13:32:33.983Z,27.04
2022-09-02T13:35:16.364Z,27.04
2022-09-02T13:37:59.697Z,27.05
2022-09-02T13:40:34.702Z,27.07
2022-09-02T13:43:13.767Z,27.20
2022-09-02T13:45:42.094Z,27.22
2022-09-02T13:48:18.715Z,27.25
2022-09-02T13:50:52.063Z,27.31
2022-09-02T13:53:45.714Z,27.31
2022-09-02T13:56:28.209Z,27.25
2022-09-02T13:58:58.844Z,27.26
2022-09-02T14:01:39.820Z,27.27
2022-09-02T14:04:14.257Z,27.26
2022-09-02T14:06:46.393Z,27.28
2022-09-02T14:09:28.996Z,27.31
2022-09-02T14:11:58.750Z,27.29
2022-09-02T14:14:26.638Z,27.31
2022-09-02T14:17:24.637Z,27.40
2022-09-02T14:20:07.658Z,27.41
2022-09-02T14:22:35.912Z,27.42
2022-09-02T14:25:15.111Z,27.45
2022-09-02T14:28:18.992Z,27.45
2022-09-02T14:30:57.961Z,27.37
2022-09-02T14:33:28.217Z,27.32
2022-09-02T14:36:17.858Z,27.31
2022-09-02T14:38:47.523Z,27.28
2022-09-02T14:41:17.399Z,27.30
2022-09-02T14:43:49.360Z,27.27
2022-09-02T14:46:39.353Z,27.31
2022-09-02T14:49:33.218Z,27.27
2022-09-02T14:52:10.430Z,27.26
2022-09-02T14:54:41.308Z,27.27
2022-09-02T14:57:28.422Z,27.28
2022-09-02T14:59:58.125Z,27.25
2022-09-02T15:02:27.966Z,27.24
2022-09-02T15:04:57.402Z,27.31
2022-09-02T15:07:25.656Z,27.33
2022-09-02T15:09:52.850Z,27.37
2022-09-02T15:12:29.551Z,27.43
2022-09-02T15:14:57.901Z,27.45
2022-09-02T15:17:26.112Z,27.42
2022-09-02T15:19:53.065Z,27.42
2022-09-02T15:22:21.260Z,27.42
2022-09-02T15:24:49.194Z,27.43
2022-09-02T15:27:17.302Z,27.52
2022-09-02T15:29:48.976Z,27.56
2022-09-02T15:32:16.335Z,27.54
2022-09-02T15:34:43.443Z,27.51
2022-09-02T15:37:13.035Z,27.47
2022-09-02T15:39:41.182Z,27.45
2022-09-02T15:42:08.327Z,27.41
2022-09-02T15:44:35.293Z,27.37
2022-09-02T15:47:02.644Z,27.34
2022-09-02T15:49:30.630Z,27.32
2022-09-02T15:51:58.619Z,27.27
2022-09-02T15:54:25.602Z,27.26
2022-09-02T15:56:58.799Z,27.28
2022-09-02T15:59:27.396Z,27.21
2022-09-02T16:01:58.398Z,27.17
2022-09-02T16:04:27.251Z,27.13
2022-09-02T16:06:54.534Z,27.11
2022-09-02T16:09:22.155Z,27.07
2022-09-02T16:11:53.653Z,27.04
2022-09-02T16:14:23.327Z,26.98
2022-09-02T16:16:54.687Z,26.89
2022-09-02T16:19:24.165Z,26.84
2022-09-02T16:21:52.218Z,26.78
2022-09-02T16:24:21.379Z,26.74
2022-09-02T16:26:49.497Z,26.70
2022-09-02T16:29:17.794Z,26.66
2022-09-02T16:32:01.832Z,26.57
2022-09-02T16:34:34.691Z,26.49
2022-09-02T16:37:01.690Z,26.43
2022-09-02T16:39:28.748Z,26.33
2022-09-02T16:41:55.764Z,26.25
2022-09-02T16:44:25.192Z,26.18
2022-09-02T16:46:53.619Z,26.10
2022-09-02T16:49:22.097Z,26.00
2022-09-02T16:51:57.814Z,25.92
2022-09-02T16:54:31.479Z,25.81
2022-09-02T16:57:00.868Z,25.71
2022-09-02T16:59:27.987Z,25.62
2022-09-02T17:01:55.303Z,25.54
2022-09-02T17:04:22.449Z,25.47
2022-09-02T17:06:49.694Z,25.39
2022-09-02T17:09:16.780Z,25.30
2022-09-02T17:11:45.299Z,25.24
2022-09-02T17:14:18.347Z,25.19
2022-09-02T17:16:49.326Z,25.10
2022-09-02T17:19:21.812Z,25.04
2022-09-02T17:21:52.059Z,24.97
2022-09-02T17:24:25.695Z,24.90
2022-09-02T17:26:58.283Z,24.84
2022-09-02T17:29:49.073Z,24.76
2022-09-02T17:32:17.592Z,24.68
2022-09-02T17:34:44.925Z,24.59
2022-09-02T17:37:11.938Z,24.52
2022-09-02T17:39:39.002Z,24.47
2022-09-02T17:42:06.984Z,24.43
2022-09-02T17:44:43.174Z,24.38
2022-09-02T17:47:19.925Z,24.31
2022-09-02T17:49:47.900Z,24.26
2022-09-02T17:52:18.781Z,24.16
2022-09-02T17:54:52.794Z,24.09
2022-09-02T17:57:50.499Z,24.03
2022-09-02T18:00:26.558Z,23.89
2022-09-02T18:03:33.030Z,23.84
2022-09-02T18:06:19.753Z,23.78
2022-09-02T18:09:07.270Z,23.71
2022-09-02T18:11:38.685Z,23.60
2022-09-02T18:14:47.601Z,23.52
2022-09-02T18:17:52.595Z,23.41
2022-09-02T18:20:43.403Z,23.28
2022-09-02T18:23:31.770Z,23.20
2022-09-02T18:26:41.302Z,23.08
2022-09-02T18:29:26.964Z,23.01
2022-09-02T18:33:02.822Z,22.94
2022-09-02T18:36:08.935Z,22.85
2022-09-02T18:39:23.521Z,22.75
2022-09-02T18:42:40.768Z,22.67
2022-09-02T18:45:20.871Z,22.58
2022-09-02T18:48:19.399Z,22.53
2022-09-02T18:50:56.896Z,22.49
2022-09-02T18:53:32.133Z,22.43
2022-09-02T18:56:07.150Z,22.37
2022-09-02T18:58:46.088Z,22.32
2022-09-02T19:01:29.934Z,22.25
2022-09-02T19:03:59.850Z,22.21
2022-09-02T19:06:35.996Z,22.19
2022-09-02T19:09:14.223Z,22.13
2022-09-02T19:11:41.890Z,22.07
2022-09-02T19:14:08.706Z,22.04
2022-09-02T19:16:38.855Z,22.02
2022-09-02T19:19:10.359Z,22.01
2022-09-02T19:21:48.041Z,21.97
2022-09-02T19:24:24.719Z,21.91
2022-09-02T19:27:09.051Z,21.86
2022-09-02T19:29:41.194Z,21.80
2022-09-02T19:32:08.547Z,21.75
2022-09-02T19:34:39.590Z,21.71
2022-09-02T19:37:07.473Z,21.67
2022-09-02T19:39:35.149Z,21.64
2022-09-02T19:42:02.168Z,21.62
2022-09-02T19:44:29.236Z,21.57
2022-09-02T19:47:49.869Z,21.52
2022-09-02T19:49:44.269Z,21.44
2022-09-02T19:52:11.646Z,21.42
2022-09-02T19:54:38.789Z,21.39
2022-09-02T19:57:05.806Z,21.35
2022-09-02T19:59:33.107Z,21.32
2022-09-02T20:02:00.369Z,21.30
2022-09-02T20:04:29.953Z,21.25
2022-09-02T20:06:58.852Z,21.19
2022-09-02T20:09:29.386Z,21.17
2022-09-02T20:11:56.901Z,21.13
2022-09-02T20:14:23.989Z,21.09
2022-09-02T20:17:00.108Z,21.07
2022-09-02T20:19:27.916Z,21.03
2022-09-02T20:21:54.911Z,20.99
2022-09-02T20:24:29.962Z,20.94
2022-09-02T20:27:12.609Z,20.91
2022-09-02T20:30:07.474Z,20.91
2022-09-02T20:32:59.627Z,20.81
2022-09-02T20:35:58.024Z,20.78
2022-09-02T20:38:46.064Z,20.76
2022-09-02T20:41:40.003Z,20.74
2022-09-02T20:44:41.185Z,20.70
2022-09-02T20:47:29.988Z,20.64
2022-09-02T20:50:06.176Z,20.64
2022-09-02T20:53:09.735Z,20.63
2022-09-02T20:55:49.849Z,20.61
2022-09-02T20:59:14.230Z,20.60
2022-09-02T21:01:45.348Z,20.57
2022-09-02T21:04:24.282Z,20.54
2022-09-02T21:07:17.271Z,20.53
2022-09-02T21:10:08.407Z,20.52
2022-09-02T21:13:20.011Z,20.52
2022-09-02T21:15:56.054Z,20.49
2022-09-02T21:18:56.160Z,20.47
2022-09-02T21:21:35.059Z,20.46
2022-09-02T21:24:32.463Z,20.44
2022-09-02T21:27:20.476Z,20.40
2022-09-02T21:30:07.635Z,20.39
2022-09-02T21:32:44.707Z,20.35
2022-09-02T21:35:24.088Z,20.33
2022-09-02T21:38:03.570Z,20.29
2022-09-02T21:40:49.260Z,20.26
2022-09-02T21:43:32.102Z,20.24
2022-09-02T21:46:27.230Z,20.24
2022-09-02T21:49:26.160Z,20.20
2022-09-02T21:52:06.668Z,20.20
2022-09-02T21:54:47.959Z,20.18
2022-09-02T21:57:47.109Z,20.12
2022-09-02T22:00:17.583Z,20.12
2022-09-02T22:03:21.812Z,20.10
2022-09-02T22:06:01.716Z,20.09
2022-09-02T22:09:04.523Z,20.06
2022-09-02T22:11:35.130Z,20.03
2022-09-02T22:14:09.895Z,20.01
2022-09-02T22:16:56.048Z,19.99
2022-09-02T22:19:30.102Z,19.96
2022-09-02T22:22:08.862Z,19.95
2022-09-02T22:24:37.393Z,19.93
2022-09-02T22:27:17.470Z,19.90
2022-09-02T22:30:01.892Z,19.88
2022-09-02T22:32:35.663Z,19.85
2022-09-02T22:35:31.446Z,19.83
2022-09-02T22:38:27.467Z,19.83
2022-09-02T22:41:01.152Z,19.79
2022-09-02T22:43:42.930Z,19.77
2022-09-02T22:46:40.924Z,19.76
2022-09-02T22:49:38.599Z,19.72
2022-09-02T22:52:44.802Z,19.67
2022-09-02T22:56:06.040Z,19.65
2022-09-02T22:58:42.035Z,19.62
2022-09-02T23:01:51.589Z,19.61
2022-09-02T23:04:39.746Z,19.56
2022-09-02T23:07:07.474Z,19.52
2022-09-02T23:09:38.678Z,19.50
2022-09-02T23:12:41.231Z,19.47
2022-09-02T23:15:36.855Z,19.45
2022-09-02T23:18:17.129Z,19.41
2022-09-02T23:20:55.878Z,19.39
2022-09-02T23:23:45.540Z,19.38
2022-09-02T23:27:03.420Z,19.34
2022-09-02T23:29:31.260Z,19.33
2022-09-02T23:32:25.127Z,19.31
2022-09-02T23:35:28.079Z,19.31
2022-09-02T23:38:35.157Z,19.30
2022-09-02T23:41:09.824Z,19.29
2022-09-02T23:43:39.469Z,19.29
2022-09-02T23:46:31.244Z,19.29
2022-09-02T23:49:35.263Z,19.26
2022-09-02T23:52:28.975Z,19.27
2022-09-02T23:55:23.980Z,19.23
2022-09-02T23:58:19.693Z,19.25
